sensor_id;sensor_type;location;lat;lon;timestamp;temperature;humidity
2867;DHT22;1441;48.886;8.728;2023-12-20T00:00:14;7.30;99.90
2867;DHT22;1441;48.886;8.728;2023-12-20T00:02:39;7.30;99.90
2867;DHT22;1441;48.886;8.728;2023-12-20T00:05:05;7.30;99.90
2867;DHT22;1441;48.886;8.728;2023-12-20T00:07:31;7.20;99.90
2867;DHT22;1441;48.886;8.728;2023-12-20T00:09:56;7.20;99.90
2867;DHT22;1441;48.886;8.728;2023-12-20T00:12:22;7.20;99.90
2867;DHT22;1441;48.886;8.728;2023-12-20T00:14:48;7.20;99.90
2867;DHT22;1441;48.886;8.728;2023-12-20T00:17:13;7.20;99.90
2867;DHT22;1441;48.886;8.728;2023-12-20T00:19:40;7.20;99.90
2867;DHT22;1441;48.886;8.728;2023-12-20T00:22:05;7.10;99.90
2867;DHT22;1441;48.886;8.728;2023-12-20T00:24:31;7.10;99.90
2867;DHT22;1441;48.886;8.728;2023-12-20T00:26:56;7.10;99.90
2867;DHT22;1441;48.886;8.728;2023-12-20T00:29:22;7.00;99.90
2867;DHT22;1441;48.886;8.728;2023-12-20T00:31:47;7.00;99.90
2867;DHT22;1441;48.886;8.728;2023-12-20T00:34:13;7.00;99.90
2867;DHT22;1441;48.886;8.728;2023-12-20T00:36:38;7.00;99.90
2867;DHT22;1441;48.886;8.728;2023-12-20T00:39:04;7.00;99.90
2867;DHT22;1441;48.886;8.728;2023-12-20T00:41:29;6.90;99.90
2867;DHT22;1441;48.886;8.728;2023-12-20T00:43:55;7.00;99.90
2867;DHT22;1441;48.886;8.728;2023-12-20T00:46:20;6.90;99.90
2867;DHT22;1441;48.886;8.728;2023-12-20T00:48:46;6.90;99.90
2867;DHT22;1441;48.886;8.728;2023-12-20T00:51:11;6.90;99.90
2867;DHT22;1441;48.886;8.728;2023-12-20T00:53:37;6.90;99.90
2867;DHT22;1441;48.886;8.728;2023-12-20T00:56:02;6.90;99.90
2867;DHT22;1441;48.886;8.728;2023-12-20T00:58:28;6.80;99.90
2867;DHT22;1441;48.886;8.728;2023-12-20T01:00:54;6.90;99.90
2867;DHT22;1441;48.886;8.728;2023-12-20T01:03:19;6.90;99.90
2867;DHT22;1441;48.886;8.728;2023-12-20T01:05:45;6.90;99.90
2867;DHT22;1441;48.886;8.728;2023-12-20T01:08:10;6.80;99.90
2867;DHT22;1441;48.886;8.728;2023-12-20T01:10:36;6.80;99.90
2867;DHT22;1441;48.886;8.728;2023-12-20T01:13:02;6.90;99.90
2867;DHT22;1441;48.886;8.728;2023-12-20T01:15:27;6.80;99.90
2867;DHT22;1441;48.886;8.728;2023-12-20T01:17:53;6.90;99.90
2867;DHT22;1441;48.886;8.728;2023-12-20T01:20:18;6.80;99.90
2867;DHT22;1441;48.886;8.728;2023-12-20T01:22:45;6.80;99.90
2867;DHT22;1441;48.886;8.728;2023-12-20T01:25:11;6.80;99.90
2867;DHT22;1441;48.886;8.728;2023-12-20T01:27:37;6.80;99.90
2867;DHT22;1441;48.886;8.728;2023-12-20T01:30:03;6.80;99.90
2867;DHT22;1441;48.886;8.728;2023-12-20T01:32:28;6.80;99.90
2867;DHT22;1441;48.886;8.728;2023-12-20T01:34:54;6.80;99.90
2867;DHT22;1441;48.886;8.728;2023-12-20T01:37:19;6.80;99.90
2867;DHT22;1441;48.886;8.728;2023-12-20T01:39:45;6.70;99.90
2867;DHT22;1441;48.886;8.728;2023-12-20T01:42:10;6.70;99.90
2867;DHT22;1441;48.886;8.728;2023-12-20T01:44:36;6.60;99.90
2867;DHT22;1441;48.886;8.728;2023-12-20T01:47:01;6.60;99.90
2867;DHT22;1441;48.886;8.728;2023-12-20T01:49:27;6.60;99.90
2867;DHT22;1441;48.886;8.728;2023-12-20T01:51:54;6.60;99.90
2867;DHT22;1441;48.886;8.728;2023-12-20T01:54:20;6.60;99.90
2867;DHT22;1441;48.886;8.728;2023-12-20T01:56:46;6.60;99.90
2867;DHT22;1441;48.886;8.728;2023-12-20T01:59:12;6.50;99.90
2867;DHT22;1441;48.886;8.728;2023-12-20T02:01:38;6.60;99.90
2867;DHT22;1441;48.886;8.728;2023-12-20T02:04:04;6.50;99.90
2867;DHT22;1441;48.886;8.728;2023-12-20T02:06:30;6.50;99.90
2867;DHT22;1441;48.886;8.728;2023-12-20T02:08:58;6.50;99.90
2867;DHT22;1441;48.886;8.728;2023-12-20T02:11:25;6.40;99.90
2867;DHT22;1441;48.886;8.728;2023-12-20T02:13:51;6.40;99.90
2867;DHT22;1441;48.886;8.728;2023-12-20T02:16:17;6.30;99.90
2867;DHT22;1441;48.886;8.728;2023-12-20T02:18:43;6.30;99.90
2867;DHT22;1441;48.886;8.728;2023-12-20T02:21:09;6.30;99.90
2867;DHT22;1441;48.886;8.728;2023-12-20T02:23:35;6.30;99.90
2867;DHT22;1441;48.886;8.728;2023-12-20T02:26:01;6.30;99.90
2867;DHT22;1441;48.886;8.728;2023-12-20T02:28:26;6.30;99.90
2867;DHT22;1441;48.886;8.728;2023-12-20T02:30:52;6.30;99.90
2867;DHT22;1441;48.886;8.728;2023-12-20T02:33:18;6.30;99.90
2867;DHT22;1441;48.886;8.728;2023-12-20T02:35:43;6.20;99.90
2867;DHT22;1441;48.886;8.728;2023-12-20T02:38:09;6.20;99.90
2867;DHT22;1441;48.886;8.728;2023-12-20T02:40:34;6.20;99.90
2867;DHT22;1441;48.886;8.728;2023-12-20T02:43:00;6.10;99.90
2867;DHT22;1441;48.886;8.728;2023-12-20T02:45:26;6.10;99.90
2867;DHT22;1441;48.886;8.728;2023-12-20T02:47:52;6.10;99.90
2867;DHT22;1441;48.886;8.728;2023-12-20T02:50:17;6.10;99.90
2867;DHT22;1441;48.886;8.728;2023-12-20T02:52:45;6.10;99.90
2867;DHT22;1441;48.886;8.728;2023-12-20T02:55:10;6.10;99.90
2867;DHT22;1441;48.886;8.728;2023-12-20T02:57:36;6.00;99.90
2867;DHT22;1441;48.886;8.728;2023-12-20T03:00:08;6.00;99.90
2867;DHT22;1441;48.886;8.728;2023-12-20T03:02:34;6.00;99.90
2867;DHT22;1441;48.886;8.728;2023-12-20T03:05:00;6.00;99.90
2867;DHT22;1441;48.886;8.728;2023-12-20T03:07:25;6.00;99.90
2867;DHT22;1441;48.886;8.728;2023-12-20T03:09:51;6.00;99.90
2867;DHT22;1441;48.886;8.728;2023-12-20T03:12:16;6.00;99.90
2867;DHT22;1441;48.886;8.728;2023-12-20T03:14:43;6.00;99.90
2867;DHT22;1441;48.886;8.728;2023-12-20T03:17:09;6.00;99.90
2867;DHT22;1441;48.886;8.728;2023-12-20T03:19:35;6.00;99.90
2867;DHT22;1441;48.886;8.728;2023-12-20T03:22:00;5.90;99.90
2867;DHT22;1441;48.886;8.728;2023-12-20T03:24:26;5.90;99.90
2867;DHT22;1441;48.886;8.728;2023-12-20T03:26:52;5.90;99.90
2867;DHT22;1441;48.886;8.728;2023-12-20T03:29:17;5.90;99.90
2867;DHT22;1441;48.886;8.728;2023-12-20T03:31:43;5.90;99.90
2867;DHT22;1441;48.886;8.728;2023-12-20T03:34:08;5.90;99.90
2867;DHT22;1441;48.886;8.728;2023-12-20T03:36:34;5.90;99.90
2867;DHT22;1441;48.886;8.728;2023-12-20T03:38:59;5.90;99.90
2867;DHT22;1441;48.886;8.728;2023-12-20T03:41:25;5.80;99.90
2867;DHT22;1441;48.886;8.728;2023-12-20T03:43:51;5.90;99.90
2867;DHT22;1441;48.886;8.728;2023-12-20T03:46:16;5.80;99.90
2867;DHT22;1441;48.886;8.728;2023-12-20T03:48:42;5.80;99.90
2867;DHT22;1441;48.886;8.728;2023-12-20T03:51:07;5.90;99.90
2867;DHT22;1441;48.886;8.728;2023-12-20T03:53:33;5.80;99.90
2867;DHT22;1441;48.886;8.728;2023-12-20T03:55:59;5.80;99.90
2867;DHT22;1441;48.886;8.728;2023-12-20T03:58:24;5.80;99.90
2867;DHT22;1441;48.886;8.728;2023-12-20T04:00:50;5.80;99.90
2867;DHT22;1441;48.886;8.728;2023-12-20T04:03:15;5.80;99.90
2867;DHT22;1441;48.886;8.728;2023-12-20T04:05:41;5.80;99.90
2867;DHT22;1441;48.886;8.728;2023-12-20T04:08:07;5.80;99.90
2867;DHT22;1441;48.886;8.728;2023-12-20T04:10:33;5.80;99.90
2867;DHT22;1441;48.886;8.728;2023-12-20T04:12:58;5.80;99.90
2867;DHT22;1441;48.886;8.728;2023-12-20T04:15:24;5.80;99.90
2867;DHT22;1441;48.886;8.728;2023-12-20T04:17:50;5.80;99.90
2867;DHT22;1441;48.886;8.728;2023-12-20T04:20:15;5.90;99.90
2867;DHT22;1441;48.886;8.728;2023-12-20T04:22:41;5.80;99.90
2867;DHT22;1441;48.886;8.728;2023-12-20T04:25:08;5.80;99.90
2867;DHT22;1441;48.886;8.728;2023-12-20T04:27:33;5.80;99.90
2867;DHT22;1441;48.886;8.728;2023-12-20T04:29:59;5.80;99.90
2867;DHT22;1441;48.886;8.728;2023-12-20T04:32:24;5.80;99.90
2867;DHT22;1441;48.886;8.728;2023-12-20T04:34:50;5.70;99.90
2867;DHT22;1441;48.886;8.728;2023-12-20T04:37:16;5.80;99.90
2867;DHT22;1441;48.886;8.728;2023-12-20T04:39:41;5.80;99.90
2867;DHT22;1441;48.886;8.728;2023-12-20T04:42:07;5.80;99.90
2867;DHT22;1441;48.886;8.728;2023-12-20T04:44:32;5.80;99.90
2867;DHT22;1441;48.886;8.728;2023-12-20T04:46:58;5.90;99.90
2867;DHT22;1441;48.886;8.728;2023-12-20T04:49:23;5.80;99.90
2867;DHT22;1441;48.886;8.728;2023-12-20T04:51:49;5.80;99.90
2867;DHT22;1441;48.886;8.728;2023-12-20T04:54:14;5.80;99.90
2867;DHT22;1441;48.886;8.728;2023-12-20T04:56:41;5.80;99.90
2867;DHT22;1441;48.886;8.728;2023-12-20T04:59:06;5.80;99.90
2867;DHT22;1441;48.886;8.728;2023-12-20T05:01:32;5.90;99.90
2867;DHT22;1441;48.886;8.728;2023-12-20T05:03:57;5.90;99.90
2867;DHT22;1441;48.886;8.728;2023-12-20T05:06:23;5.80;99.90
2867;DHT22;1441;48.886;8.728;2023-12-20T05:08:50;5.80;99.90
2867;DHT22;1441;48.886;8.728;2023-12-20T05:11:15;5.80;99.90
2867;DHT22;1441;48.886;8.728;2023-12-20T05:13:41;5.80;99.90
2867;DHT22;1441;48.886;8.728;2023-12-20T05:16:07;5.80;99.90
2867;DHT22;1441;48.886;8.728;2023-12-20T05:18:34;5.80;99.90
2867;DHT22;1441;48.886;8.728;2023-12-20T05:21:00;5.90;99.90
2867;DHT22;1441;48.886;8.728;2023-12-20T05:23:25;5.80;99.90
2867;DHT22;1441;48.886;8.728;2023-12-20T05:25:51;5.90;99.90
2867;DHT22;1441;48.886;8.728;2023-12-20T05:28:16;5.90;99.90
2867;DHT22;1441;48.886;8.728;2023-12-20T05:30:42;5.90;99.90
2867;DHT22;1441;48.886;8.728;2023-12-20T05:33:08;5.90;99.90
2867;DHT22;1441;48.886;8.728;2023-12-20T05:35:34;5.90;99.90
2867;DHT22;1441;48.886;8.728;2023-12-20T05:38:00;5.90;99.90
2867;DHT22;1441;48.886;8.728;2023-12-20T05:40:25;5.90;99.90
2867;DHT22;1441;48.886;8.728;2023-12-20T05:42:51;5.90;99.90
2867;DHT22;1441;48.886;8.728;2023-12-20T05:45:17;5.90;99.90
2867;DHT22;1441;48.886;8.728;2023-12-20T05:47:42;5.90;99.90
2867;DHT22;1441;48.886;8.728;2023-12-20T05:50:08;5.90;99.90
2867;DHT22;1441;48.886;8.728;2023-12-20T05:52:34;5.90;99.90
2867;DHT22;1441;48.886;8.728;2023-12-20T05:54:59;5.80;99.90
2867;DHT22;1441;48.886;8.728;2023-12-20T05:57:27;5.80;99.90
2867;DHT22;1441;48.886;8.728;2023-12-20T05:59:52;5.90;99.90
2867;DHT22;1441;48.886;8.728;2023-12-20T06:02:18;5.90;99.90
2867;DHT22;1441;48.886;8.728;2023-12-20T06:04:44;5.80;99.90
2867;DHT22;1441;48.886;8.728;2023-12-20T06:07:11;5.80;99.90
2867;DHT22;1441;48.886;8.728;2023-12-20T06:09:37;5.80;99.90
2867;DHT22;1441;48.886;8.728;2023-12-20T06:12:03;5.90;99.90
2867;DHT22;1441;48.886;8.728;2023-12-20T06:14:28;5.90;99.90
2867;DHT22;1441;48.886;8.728;2023-12-20T06:16:56;5.90;99.90
2867;DHT22;1441;48.886;8.728;2023-12-20T06:19:22;5.90;99.90
2867;DHT22;1441;48.886;8.728;2023-12-20T06:21:47;5.90;99.90
2867;DHT22;1441;48.886;8.728;2023-12-20T06:24:13;5.90;99.90
2867;DHT22;1441;48.886;8.728;2023-12-20T06:26:38;5.90;99.90
2867;DHT22;1441;48.886;8.728;2023-12-20T06:29:04;5.90;99.90
2867;DHT22;1441;48.886;8.728;2023-12-20T06:31:29;5.90;99.90
2867;DHT22;1441;48.886;8.728;2023-12-20T06:33:55;5.90;99.90
2867;DHT22;1441;48.886;8.728;2023-12-20T06:36:23;5.90;99.90
2867;DHT22;1441;48.886;8.728;2023-12-20T06:38:50;5.90;99.90
2867;DHT22;1441;48.886;8.728;2023-12-20T06:41:15;5.90;99.90
2867;DHT22;1441;48.886;8.728;2023-12-20T06:43:42;5.90;99.90
2867;DHT22;1441;48.886;8.728;2023-12-20T06:46:07;5.90;99.90
2867;DHT22;1441;48.886;8.728;2023-12-20T06:48:33;5.90;99.90
2867;DHT22;1441;48.886;8.728;2023-12-20T06:51:00;5.90;99.90
2867;DHT22;1441;48.886;8.728;2023-12-20T06:53:26;5.90;99.90
2867;DHT22;1441;48.886;8.728;2023-12-20T06:55:51;5.80;99.90
2867;DHT22;1441;48.886;8.728;2023-12-20T06:58:17;5.80;99.90
2867;DHT22;1441;48.886;8.728;2023-12-20T07:00:42;5.70;99.90
2867;DHT22;1441;48.886;8.728;2023-12-20T07:03:09;5.80;99.90
2867;DHT22;1441;48.886;8.728;2023-12-20T07:05:34;5.70;99.90
2867;DHT22;1441;48.886;8.728;2023-12-20T07:08:00;5.70;99.90
2867;DHT22;1441;48.886;8.728;2023-12-20T07:10:25;5.70;99.90
2867;DHT22;1441;48.886;8.728;2023-12-20T07:12:51;5.70;99.90
2867;DHT22;1441;48.886;8.728;2023-12-20T07:15:17;5.70;99.90
2867;DHT22;1441;48.886;8.728;2023-12-20T07:17:43;5.70;99.90
2867;DHT22;1441;48.886;8.728;2023-12-20T07:20:09;5.70;99.90
2867;DHT22;1441;48.886;8.728;2023-12-20T07:22:36;5.70;99.90
2867;DHT22;1441;48.886;8.728;2023-12-20T07:25:02;5.70;99.90
2867;DHT22;1441;48.886;8.728;2023-12-20T07:27:27;5.70;99.90
2867;DHT22;1441;48.886;8.728;2023-12-20T07:29:53;5.70;99.90
2867;DHT22;1441;48.886;8.728;2023-12-20T07:32:18;5.60;99.90
2867;DHT22;1441;48.886;8.728;2023-12-20T07:34:44;5.70;99.90
2867;DHT22;1441;48.886;8.728;2023-12-20T07:37:10;5.60;99.90
2867;DHT22;1441;48.886;8.728;2023-12-20T07:39:37;5.60;99.90
2867;DHT22;1441;48.886;8.728;2023-12-20T07:42:03;5.70;99.90
2867;DHT22;1441;48.886;8.728;2023-12-20T07:44:28;5.60;99.90
2867;DHT22;1441;48.886;8.728;2023-12-20T07:46:54;5.60;99.90
2867;DHT22;1441;48.886;8.728;2023-12-20T07:49:19;5.70;99.90
2867;DHT22;1441;48.886;8.728;2023-12-20T07:51:45;5.60;99.90
2867;DHT22;1441;48.886;8.728;2023-12-20T07:54:10;5.60;99.90
2867;DHT22;1441;48.886;8.728;2023-12-20T07:56:36;5.60;99.90
2867;DHT22;1441;48.886;8.728;2023-12-20T07:59:01;5.50;99.90
2867;DHT22;1441;48.886;8.728;2023-12-20T08:01:27;5.50;99.90
2867;DHT22;1441;48.886;8.728;2023-12-20T08:03:52;5.50;99.90
2867;DHT22;1441;48.886;8.728;2023-12-20T08:06:18;5.50;99.90
2867;DHT22;1441;48.886;8.728;2023-12-20T08:08:44;5.50;99.90
2867;DHT22;1441;48.886;8.728;2023-12-20T08:11:10;5.50;99.90
2867;DHT22;1441;48.886;8.728;2023-12-20T08:13:36;5.50;99.90
2867;DHT22;1441;48.886;8.728;2023-12-20T08:16:01;5.50;99.90
2867;DHT22;1441;48.886;8.728;2023-12-20T08:18:28;5.50;99.90
2867;DHT22;1441;48.886;8.728;2023-12-20T08:20:54;5.60;99.90
2867;DHT22;1441;48.886;8.728;2023-12-20T08:23:19;5.50;99.90
2867;DHT22;1441;48.886;8.728;2023-12-20T08:25:49;5.50;99.90
2867;DHT22;1441;48.886;8.728;2023-12-20T08:28:14;5.50;99.90
2867;DHT22;1441;48.886;8.728;2023-12-20T08:30:40;5.50;99.90
2867;DHT22;1441;48.886;8.728;2023-12-20T08:33:06;5.60;99.90
2867;DHT22;1441;48.886;8.728;2023-12-20T08:35:36;5.70;99.90
2867;DHT22;1441;48.886;8.728;2023-12-20T08:38:02;5.70;99.90
2867;DHT22;1441;48.886;8.728;2023-12-20T08:40:29;5.70;99.90
2867;DHT22;1441;48.886;8.728;2023-12-20T08:42:54;5.70;99.90
2867;DHT22;1441;48.886;8.728;2023-12-20T08:45:20;5.70;99.90
2867;DHT22;1441;48.886;8.728;2023-12-20T08:47:46;5.80;99.90
2867;DHT22;1441;48.886;8.728;2023-12-20T08:50:11;5.90;99.90
2867;DHT22;1441;48.886;8.728;2023-12-20T08:52:37;5.80;99.90
2867;DHT22;1441;48.886;8.728;2023-12-20T08:55:03;5.70;99.90
2867;DHT22;1441;48.886;8.728;2023-12-20T08:57:28;5.70;99.90
2867;DHT22;1441;48.886;8.728;2023-12-20T08:59:54;5.60;99.90
2867;DHT22;1441;48.886;8.728;2023-12-20T09:02:19;5.50;99.90
2867;DHT22;1441;48.886;8.728;2023-12-20T09:04:45;5.50;99.90
2867;DHT22;1441;48.886;8.728;2023-12-20T09:07:26;5.50;99.90
2867;DHT22;1441;48.886;8.728;2023-12-20T09:09:53;5.50;99.90
2867;DHT22;1441;48.886;8.728;2023-12-20T09:12:19;5.40;99.90
2867;DHT22;1441;48.886;8.728;2023-12-20T09:14:46;5.40;99.90
2867;DHT22;1441;48.886;8.728;2023-12-20T09:17:12;5.50;99.90
2867;DHT22;1441;48.886;8.728;2023-12-20T09:19:38;5.40;99.90
2867;DHT22;1441;48.886;8.728;2023-12-20T09:22:04;5.40;99.90
2867;DHT22;1441;48.886;8.728;2023-12-20T09:24:30;5.50;99.90
2867;DHT22;1441;48.886;8.728;2023-12-20T09:26:56;5.50;99.90
2867;DHT22;1441;48.886;8.728;2023-12-20T09:29:21;5.50;99.90
2867;DHT22;1441;48.886;8.728;2023-12-20T09:31:47;5.50;99.90
2867;DHT22;1441;48.886;8.728;2023-12-20T09:34:15;5.70;99.90
2867;DHT22;1441;48.886;8.728;2023-12-20T09:36:41;5.80;99.90
2867;DHT22;1441;48.886;8.728;2023-12-20T09:39:14;6.00;99.90
2867;DHT22;1441;48.886;8.728;2023-12-20T09:41:43;6.10;99.90
2867;DHT22;1441;48.886;8.728;2023-12-20T09:44:14;6.10;99.90
2867;DHT22;1441;48.886;8.728;2023-12-20T09:46:43;6.00;99.90
2867;DHT22;1441;48.886;8.728;2023-12-20T09:49:10;5.90;99.90
2867;DHT22;1441;48.886;8.728;2023-12-20T09:51:36;6.00;99.90
2867;DHT22;1441;48.886;8.728;2023-12-20T09:54:05;5.90;99.90
2867;DHT22;1441;48.886;8.728;2023-12-20T09:56:31;5.90;99.90
2867;DHT22;1441;48.886;8.728;2023-12-20T09:58:57;5.90;99.90
2867;DHT22;1441;48.886;8.728;2023-12-20T10:01:23;5.90;99.90
2867;DHT22;1441;48.886;8.728;2023-12-20T10:03:51;6.00;99.90
2867;DHT22;1441;48.886;8.728;2023-12-20T10:06:19;6.00;99.90
2867;DHT22;1441;48.886;8.728;2023-12-20T10:08:45;6.00;99.90
2867;DHT22;1441;48.886;8.728;2023-12-20T10:11:10;6.00;99.90
2867;DHT22;1441;48.886;8.728;2023-12-20T10:13:40;6.00;99.90
2867;DHT22;1441;48.886;8.728;2023-12-20T10:16:06;6.00;99.90
2867;DHT22;1441;48.886;8.728;2023-12-20T10:18:33;6.00;99.90
2867;DHT22;1441;48.886;8.728;2023-12-20T10:20:58;6.10;99.90
2867;DHT22;1441;48.886;8.728;2023-12-20T10:23:25;6.20;99.90
2867;DHT22;1441;48.886;8.728;2023-12-20T10:26:00;6.20;99.90
2867;DHT22;1441;48.886;8.728;2023-12-20T10:28:26;6.20;99.90
2867;DHT22;1441;48.886;8.728;2023-12-20T10:30:55;6.20;99.90
2867;DHT22;1441;48.886;8.728;2023-12-20T10:33:27;6.30;99.90
2867;DHT22;1441;48.886;8.728;2023-12-20T10:35:54;6.40;99.90
2867;DHT22;1441;48.886;8.728;2023-12-20T10:38:20;6.40;99.90
2867;DHT22;1441;48.886;8.728;2023-12-20T10:40:46;6.40;99.90
2867;DHT22;1441;48.886;8.728;2023-12-20T10:43:12;6.50;99.90
2867;DHT22;1441;48.886;8.728;2023-12-20T10:45:38;6.40;99.90
2867;DHT22;1441;48.886;8.728;2023-12-20T10:48:04;6.40;99.90
2867;DHT22;1441;48.886;8.728;2023-12-20T10:50:31;6.40;99.90
2867;DHT22;1441;48.886;8.728;2023-12-20T10:52:58;6.30;99.90
2867;DHT22;1441;48.886;8.728;2023-12-20T10:55:24;6.30;99.90
2867;DHT22;1441;48.886;8.728;2023-12-20T10:58:08;6.40;99.90
2867;DHT22;1441;48.886;8.728;2023-12-20T11:00:39;6.50;99.90
2867;DHT22;1441;48.886;8.728;2023-12-20T11:03:09;6.30;99.90
2867;DHT22;1441;48.886;8.728;2023-12-20T11:05:42;6.30;99.90
2867;DHT22;1441;48.886;8.728;2023-12-20T11:13:48;6.30;99.90
2867;DHT22;1441;48.886;8.728;2023-12-20T11:16:18;6.30;99.90
2867;DHT22;1441;48.886;8.728;2023-12-20T11:18:45;6.20;99.90
2867;DHT22;1441;48.886;8.728;2023-12-20T11:21:11;6.20;99.90
2867;DHT22;1441;48.886;8.728;2023-12-20T11:23:36;6.20;99.90
2867;DHT22;1441;48.886;8.728;2023-12-20T11:26:02;6.20;99.90
2867;DHT22;1441;48.886;8.728;2023-12-20T11:28:28;6.10;99.90
2867;DHT22;1441;48.886;8.728;2023-12-20T11:30:58;6.10;99.90
2867;DHT22;1441;48.886;8.728;2023-12-20T11:33:26;6.20;99.90
2867;DHT22;1441;48.886;8.728;2023-12-20T11:35:59;6.20;99.90
2867;DHT22;1441;48.886;8.728;2023-12-20T11:38:25;6.30;99.90
2867;DHT22;1441;48.886;8.728;2023-12-20T11:40:51;6.20;99.90
2867;DHT22;1441;48.886;8.728;2023-12-20T11:43:37;6.30;99.90
2867;DHT22;1441;48.886;8.728;2023-12-20T11:46:07;6.40;99.90
2867;DHT22;1441;48.886;8.728;2023-12-20T11:48:38;6.50;99.90
2867;DHT22;1441;48.886;8.728;2023-12-20T11:51:12;6.50;99.90
2867;DHT22;1441;48.886;8.728;2023-12-20T11:53:39;6.50;99.90
2867;DHT22;1441;48.886;8.728;2023-12-20T11:56:06;6.50;99.90
2867;DHT22;1441;48.886;8.728;2023-12-20T11:58:33;6.50;99.90
2867;DHT22;1441;48.886;8.728;2023-12-20T12:00:59;6.60;99.90
2867;DHT22;1441;48.886;8.728;2023-12-20T12:03:24;6.60;99.90
2867;DHT22;1441;48.886;8.728;2023-12-20T12:05:50;6.60;99.90
2867;DHT22;1441;48.886;8.728;2023-12-20T12:08:16;6.50;99.90
2867;DHT22;1441;48.886;8.728;2023-12-20T12:10:43;6.50;99.90
2867;DHT22;1441;48.886;8.728;2023-12-20T12:13:09;6.50;99.90
2867;DHT22;1441;48.886;8.728;2023-12-20T12:15:35;6.40;99.90
2867;DHT22;1441;48.886;8.728;2023-12-20T12:18:01;6.40;99.90
2867;DHT22;1441;48.886;8.728;2023-12-20T12:20:27;6.30;99.90
2867;DHT22;1441;48.886;8.728;2023-12-20T12:22:59;6.30;99.90
2867;DHT22;1441;48.886;8.728;2023-12-20T12:25:26;6.20;99.90
2867;DHT22;1441;48.886;8.728;2023-12-20T12:27:52;6.00;99.90
2867;DHT22;1441;48.886;8.728;2023-12-20T12:30:18;6.00;99.90
2867;DHT22;1441;48.886;8.728;2023-12-20T12:32:47;6.10;99.90
2867;DHT22;1441;48.886;8.728;2023-12-20T12:35:13;6.10;99.90
2867;DHT22;1441;48.886;8.728;2023-12-20T12:37:40;6.10;99.90
2867;DHT22;1441;48.886;8.728;2023-12-20T12:40:16;6.00;99.90
2867;DHT22;1441;48.886;8.728;2023-12-20T12:42:44;6.10;99.90
2867;DHT22;1441;48.886;8.728;2023-12-20T12:45:10;6.00;99.90
2867;DHT22;1441;48.886;8.728;2023-12-20T12:47:40;6.00;99.90
2867;DHT22;1441;48.886;8.728;2023-12-20T12:50:05;5.90;99.90
2867;DHT22;1441;48.886;8.728;2023-12-20T12:52:31;5.90;99.90
2867;DHT22;1441;48.886;8.728;2023-12-20T12:54:57;5.90;99.90
2867;DHT22;1441;48.886;8.728;2023-12-20T12:57:22;5.90;99.90
2867;DHT22;1441;48.886;8.728;2023-12-20T12:59:48;5.90;99.90
2867;DHT22;1441;48.886;8.728;2023-12-20T13:02:14;5.90;99.90
2867;DHT22;1441;48.886;8.728;2023-12-20T13:04:40;5.90;99.90
2867;DHT22;1441;48.886;8.728;2023-12-20T13:07:07;6.00;99.90
2867;DHT22;1441;48.886;8.728;2023-12-20T13:09:33;6.10;99.90
2867;DHT22;1441;48.886;8.728;2023-12-20T13:11:58;6.10;99.90
2867;DHT22;1441;48.886;8.728;2023-12-20T13:14:24;6.10;99.90
2867;DHT22;1441;48.886;8.728;2023-12-20T13:16:50;6.00;99.90
2867;DHT22;1441;48.886;8.728;2023-12-20T13:19:16;6.00;99.90
2867;DHT22;1441;48.886;8.728;2023-12-20T13:21:41;6.10;99.90
2867;DHT22;1441;48.886;8.728;2023-12-20T13:24:07;6.00;99.90
2867;DHT22;1441;48.886;8.728;2023-12-20T13:26:32;5.90;99.90
2867;DHT22;1441;48.886;8.728;2023-12-20T13:28:58;5.90;99.90
2867;DHT22;1441;48.886;8.728;2023-12-20T13:31:23;5.80;99.90
2867;DHT22;1441;48.886;8.728;2023-12-20T13:33:49;5.80;99.90
2867;DHT22;1441;48.886;8.728;2023-12-20T13:36:15;5.80;99.90
2867;DHT22;1441;48.886;8.728;2023-12-20T13:38:40;5.80;99.90
2867;DHT22;1441;48.886;8.728;2023-12-20T13:41:06;5.90;99.90
2867;DHT22;1441;48.886;8.728;2023-12-20T13:43:32;5.80;99.90
2867;DHT22;1441;48.886;8.728;2023-12-20T13:45:58;5.80;99.90
2867;DHT22;1441;48.886;8.728;2023-12-20T13:48:24;5.80;99.90
2867;DHT22;1441;48.886;8.728;2023-12-20T13:50:49;5.80;99.90
2867;DHT22;1441;48.886;8.728;2023-12-20T13:53:15;5.80;99.90
2867;DHT22;1441;48.886;8.728;2023-12-20T13:55:41;5.80;99.90
2867;DHT22;1441;48.886;8.728;2023-12-20T13:58:07;5.80;99.90
2867;DHT22;1441;48.886;8.728;2023-12-20T14:00:32;5.70;99.90
2867;DHT22;1441;48.886;8.728;2023-12-20T14:02:58;5.70;99.90
2867;DHT22;1441;48.886;8.728;2023-12-20T14:05:24;5.70;99.90
2867;DHT22;1441;48.886;8.728;2023-12-20T14:07:49;5.70;99.90
2867;DHT22;1441;48.886;8.728;2023-12-20T14:10:15;5.70;99.90
2867;DHT22;1441;48.886;8.728;2023-12-20T14:12:41;5.60;99.90
2867;DHT22;1441;48.886;8.728;2023-12-20T14:15:07;5.60;99.90
2867;DHT22;1441;48.886;8.728;2023-12-20T14:17:40;5.70;99.90
2867;DHT22;1441;48.886;8.728;2023-12-20T14:20:07;5.60;99.90
2867;DHT22;1441;48.886;8.728;2023-12-20T14:22:33;5.60;99.90
2867;DHT22;1441;48.886;8.728;2023-12-20T14:24:59;5.60;99.90
2867;DHT22;1441;48.886;8.728;2023-12-20T14:27:25;5.60;99.90
2867;DHT22;1441;48.886;8.728;2023-12-20T14:29:53;5.60;99.90
2867;DHT22;1441;48.886;8.728;2023-12-20T14:32:19;5.50;99.90
2867;DHT22;1441;48.886;8.728;2023-12-20T14:34:44;5.50;99.90
2867;DHT22;1441;48.886;8.728;2023-12-20T14:37:10;5.60;99.90
2867;DHT22;1441;48.886;8.728;2023-12-20T14:39:35;5.50;99.90
2867;DHT22;1441;48.886;8.728;2023-12-20T14:42:09;5.50;99.90
2867;DHT22;1441;48.886;8.728;2023-12-20T14:44:39;5.50;99.90
2867;DHT22;1441;48.886;8.728;2023-12-20T14:47:04;5.50;99.90
2867;DHT22;1441;48.886;8.728;2023-12-20T14:49:30;5.50;99.90
2867;DHT22;1441;48.886;8.728;2023-12-20T14:51:56;5.50;99.90
2867;DHT22;1441;48.886;8.728;2023-12-20T14:54:21;5.50;99.90
2867;DHT22;1441;48.886;8.728;2023-12-20T14:56:47;5.50;99.90
2867;DHT22;1441;48.886;8.728;2023-12-20T14:59:13;5.50;99.90
2867;DHT22;1441;48.886;8.728;2023-12-20T15:01:39;5.50;99.90
2867;DHT22;1441;48.886;8.728;2023-12-20T15:04:09;5.50;99.90
2867;DHT22;1441;48.886;8.728;2023-12-20T15:06:34;5.40;99.90
2867;DHT22;1441;48.886;8.728;2023-12-20T15:09:00;5.40;99.90
2867;DHT22;1441;48.886;8.728;2023-12-20T15:11:27;5.30;99.90
2867;DHT22;1441;48.886;8.728;2023-12-20T15:13:53;5.30;99.90
2867;DHT22;1441;48.886;8.728;2023-12-20T15:16:23;5.30;99.90
2867;DHT22;1441;48.886;8.728;2023-12-20T15:18:49;5.20;99.90
2867;DHT22;1441;48.886;8.728;2023-12-20T15:21:16;5.20;99.90
2867;DHT22;1441;48.886;8.728;2023-12-20T15:23:42;5.20;99.90
2867;DHT22;1441;48.886;8.728;2023-12-20T15:26:18;5.20;99.90
2867;DHT22;1441;48.886;8.728;2023-12-20T15:28:43;5.20;99.90
2867;DHT22;1441;48.886;8.728;2023-12-20T15:31:09;5.10;99.90
2867;DHT22;1441;48.886;8.728;2023-12-20T15:33:34;5.20;99.90
2867;DHT22;1441;48.886;8.728;2023-12-20T15:36:00;5.10;99.90
2867;DHT22;1441;48.886;8.728;2023-12-20T15:38:26;5.10;99.90
2867;DHT22;1441;48.886;8.728;2023-12-20T15:40:51;5.10;99.90
2867;DHT22;1441;48.886;8.728;2023-12-20T15:43:17;5.00;99.90
2867;DHT22;1441;48.886;8.728;2023-12-20T15:45:42;5.10;99.90
2867;DHT22;1441;48.886;8.728;2023-12-20T15:48:08;5.10;99.90
2867;DHT22;1441;48.886;8.728;2023-12-20T15:50:35;5.00;99.90
2867;DHT22;1441;48.886;8.728;2023-12-20T15:53:00;4.90;99.90
2867;DHT22;1441;48.886;8.728;2023-12-20T15:55:26;4.90;99.90
2867;DHT22;1441;48.886;8.728;2023-12-20T15:57:52;4.90;99.90
2867;DHT22;1441;48.886;8.728;2023-12-20T16:00:19;4.90;99.90
2867;DHT22;1441;48.886;8.728;2023-12-20T16:02:44;4.90;99.90
2867;DHT22;1441;48.886;8.728;2023-12-20T16:05:10;4.90;99.90
2867;DHT22;1441;48.886;8.728;2023-12-20T16:07:35;5.00;99.90
2867;DHT22;1441;48.886;8.728;2023-12-20T16:10:01;5.10;99.90
2867;DHT22;1441;48.886;8.728;2023-12-20T16:12:28;5.10;99.90
2867;DHT22;1441;48.886;8.728;2023-12-20T16:14:54;5.10;99.90